sensor_id;sensor_type;location;lat;lon;timestamp;pressure;altitude;pressure_sealevel;temperature;humidity
57616;BME280;43816;52.054;-9.494;2023-03-14T00:00:11;99382.72;;;17.78;41.47
57616;BME280;43816;52.054;-9.494;2023-03-14T00:00:22;99381.25;;;17.75;41.76
57616;BME280;43816;52.054;-9.494;2023-03-14T00:00:32;99377.28;;;17.78;41.51
57616;BME280;43816;52.054;-9.494;2023-03-14T00:00:45;99380.00;;;17.78;41.71
57616;BME280;43816;52.054;-9.494;2023-03-14T00:00:56;99375.81;;;17.75;41.85
57616;BME280;43816;52.054;-9.494;2023-03-14T00:01:18;99370.94;;;17.71;41.67
57616;BME280;43816;52.054;-9.494;2023-03-14T00:01:28;99386.94;;;17.81;41.98
57616;BME280;43816;52.054;-9.494;2023-03-14T00:01:39;99376.84;;;17.74;41.72
57616;BME280;43816;52.054;-9.494;2023-03-14T00:01:49;99381.69;;;17.79;41.50
57616;BME280;43816;52.054;-9.494;2023-03-14T00:01:59;99378.53;;;17.75;41.59
57616;BME280;43816;52.054;-9.494;2023-03-14T00:02:13;99374.94;;;17.75;41.62
57616;BME280;43816;52.054;-9.494;2023-03-14T00:02:23;99392.38;;;17.81;41.44
57616;BME280;43816;52.054;-9.494;2023-03-14T00:02:34;99382.09;;;17.76;41.66
57616;BME280;43816;52.054;-9.494;2023-03-14T00:02:44;99370.50;;;17.67;41.23
57616;BME280;43816;52.054;-9.494;2023-03-14T00:02:54;99383.34;;;17.80;41.50
57616;BME280;43816;52.054;-9.494;2023-03-14T00:03:05;99370.13;;;17.70;41.54
57616;BME280;43816;52.054;-9.494;2023-03-14T00:03:15;99381.25;;;17.75;41.47
57616;BME280;43816;52.054;-9.494;2023-03-14T00:03:28;99381.88;;;17.78;41.41
57616;BME280;43816;52.054;-9.494;2023-03-14T00:03:39;99387.31;;;17.78;41.60
57616;BME280;43816;52.054;-9.494;2023-03-14T00:03:50;99382.72;;;17.78;41.55
57616;BME280;43816;52.054;-9.494;2023-03-14T00:04:00;99400.53;;;17.81;41.48
57616;BME280;43816;52.054;-9.494;2023-03-14T00:04:10;99387.31;;;17.78;41.84
57616;BME280;43816;52.054;-9.494;2023-03-14T00:04:20;99364.22;;;17.67;41.83
57616;BME280;43816;52.054;-9.494;2023-03-14T00:04:31;99373.28;;;17.74;41.73
57616;BME280;43816;52.054;-9.494;2023-03-14T00:04:41;99384.41;;;17.79;41.82
57616;BME280;43816;52.054;-9.494;2023-03-14T00:04:54;99362.34;;;17.67;41.55
57616;BME280;43816;52.054;-9.494;2023-03-14T00:05:05;99383.09;;;17.75;41.25
57616;BME280;43816;52.054;-9.494;2023-03-14T00:05:15;99375.81;;;17.75;41.85
57616;BME280;43816;52.054;-9.494;2023-03-14T00:05:25;99371.78;;;17.71;41.41
57616;BME280;43816;52.054;-9.494;2023-03-14T00:05:36;99361.72;;;17.65;41.84
57616;BME280;43816;52.054;-9.494;2023-03-14T00:05:46;99380.19;;;17.76;41.73
57616;BME280;43816;52.054;-9.494;2023-03-14T00:05:56;99378.09;;;17.72;41.76
57616;BME280;43816;52.054;-9.494;2023-03-14T00:06:12;99368.00;;;17.66;41.75
57616;BME280;43816;52.054;-9.494;2023-03-14T00:06:22;99382.28;;;17.74;41.74
57616;BME280;43816;52.054;-9.494;2023-03-14T00:06:34;99380.19;;;17.76;41.79
57616;BME280;43816;52.054;-9.494;2023-03-14T00:06:45;99376.00;;;17.74;41.68
57616;BME280;43816;52.054;-9.494;2023-03-14T00:06:55;99386.44;;;17.70;41.91
57616;BME280;43816;52.054;-9.494;2023-03-14T00:07:05;99374.50;;;17.71;41.60
57616;BME280;43816;52.054;-9.494;2023-03-14T00:07:15;99383.97;;;17.75;41.75
57616;BME280;43816;52.054;-9.494;2023-03-14T00:07:26;99382.28;;;17.74;41.68
57616;BME280;43816;52.054;-9.494;2023-03-14T00:07:37;99369.47;;;17.68;41.90
57616;BME280;43816;52.054;-9.494;2023-03-14T00:07:48;99373.44;;;17.66;41.97
57616;BME280;43816;52.054;-9.494;2023-03-14T00:07:58;99382.09;;;17.76;41.51
57616;BME280;43816;52.054;-9.494;2023-03-14T00:08:09;99357.06;;;17.59;42.13
57616;BME280;43816;52.054;-9.494;2023-03-14T00:08:19;99383.97;;;17.75;41.46
57616;BME280;43816;52.054;-9.494;2023-03-14T00:08:29;99394.84;;;17.75;41.87
57616;BME280;43816;52.054;-9.494;2023-03-14T00:08:42;99373.09;;;17.75;41.80
57616;BME280;43816;52.054;-9.494;2023-03-14T00:08:53;99375.38;;;17.72;41.69
57616;BME280;43816;52.054;-9.494;2023-03-14T00:09:03;99371.78;;;17.71;41.83
57616;BME280;43816;52.054;-9.494;2023-03-14T00:09:13;99382.91;;;17.76;41.59
57616;BME280;43816;52.054;-9.494;2023-03-14T00:09:24;99381.44;;;17.74;41.42
57616;BME280;43816;52.054;-9.494;2023-03-14T00:09:34;99377.22;;;17.71;41.39
57616;BME280;43816;52.054;-9.494;2023-03-14T00:09:44;99378.72;;;17.74;41.60
57616;BME280;43816;52.054;-9.494;2023-03-14T00:09:54;99393.16;;;17.74;41.55
57616;BME280;43816;52.054;-9.494;2023-03-14T00:10:07;99374.50;;;17.71;41.47
57616;BME280;43816;52.054;-9.494;2023-03-14T00:10:18;99367.16;;;17.65;41.52
57616;BME280;43816;52.054;-9.494;2023-03-14T00:10:29;99374.91;;;17.68;41.56
57616;BME280;43816;52.054;-9.494;2023-03-14T00:10:39;99393.16;;;17.74;41.57
57616;BME280;43816;52.054;-9.494;2023-03-14T00:10:49;99382.88;;;17.70;41.37
57616;BME280;43816;52.054;-9.494;2023-03-14T00:11:11;99378.09;;;17.72;41.57
57616;BME280;43816;52.054;-9.494;2023-03-14T00:11:48;99399.22;;;17.76;41.68
57616;BME280;43816;52.054;-9.494;2023-03-14T00:11:58;99395.69;;;17.76;41.30
57616;BME280;43816;52.054;-9.494;2023-03-14T00:12:09;99386.69;;;17.75;41.57
57616;BME280;43816;52.054;-9.494;2023-03-14T00:12:19;99377.63;;;17.68;41.36
57616;BME280;43816;52.054;-9.494;2023-03-14T00:12:33;99389.38;;;17.69;41.64
57616;BME280;43816;52.054;-9.494;2023-03-14T00:12:44;99388.97;;;17.72;41.62
57616;BME280;43816;52.054;-9.494;2023-03-14T00:12:54;99381.00;;;17.70;41.51
57616;BME280;43816;52.054;-9.494;2023-03-14T00:13:04;99382.03;;;17.69;41.40
57616;BME280;43816;52.054;-9.494;2023-03-14T00:13:15;99395.25;;;17.72;41.25
57616;BME280;43816;52.054;-9.494;2023-03-14T00:13:25;99398.59;;;17.74;41.64
57616;BME280;43816;52.054;-9.494;2023-03-14T00:13:36;99404.03;;;17.74;41.73
57616;BME280;43816;52.054;-9.494;2023-03-14T00:13:51;99383.47;;;17.65;41.40
57616;BME280;43816;52.054;-9.494;2023-03-14T00:14:01;99379.69;;;17.66;41.30
57616;BME280;43816;52.054;-9.494;2023-03-14T00:14:11;99385.38;;;17.71;41.33
57616;BME280;43816;52.054;-9.494;2023-03-14T00:14:22;99385.78;;;17.68;41.47
57616;BME280;43816;52.054;-9.494;2023-03-14T00:14:32;99394.19;;;17.73;41.56
57616;BME280;43816;52.054;-9.494;2023-03-14T00:14:42;99400.47;;;17.74;41.63
57616;BME280;43816;52.054;-9.494;2023-03-14T00:15:05;99384.31;;;17.66;41.43
57616;BME280;43816;52.054;-9.494;2023-03-14T00:15:16;99394.59;;;17.70;41.37
57616;BME280;43816;52.054;-9.494;2023-03-14T00:15:26;99372.13;;;17.62;41.48
57616;BME280;43816;52.054;-9.494;2023-03-14T00:15:36;99404.03;;;17.74;41.58
57616;BME280;43816;52.054;-9.494;2023-03-14T00:15:47;99391.03;;;17.70;41.46
57616;BME280;43816;52.054;-9.494;2023-03-14T00:16:02;99399.44;;;17.75;41.28
57616;BME280;43816;52.054;-9.494;2023-03-14T00:16:13;99393.34;;;17.73;41.57
57616;BME280;43816;52.054;-9.494;2023-03-14T00:16:23;99393.16;;;17.74;41.57
57616;BME280;43816;52.054;-9.494;2023-03-14T00:16:34;99390.81;;;17.71;41.44
57616;BME280;43816;52.054;-9.494;2023-03-14T00:16:47;99383.06;;;17.68;41.65
57616;BME280;43816;52.054;-9.494;2023-03-14T00:17:00;99375.03;;;17.60;41.81
57616;BME280;43816;52.054;-9.494;2023-03-14T00:17:13;99395.25;;;17.72;41.48
57616;BME280;43816;52.054;-9.494;2023-03-14T00:17:24;99373.63;;;17.64;41.58
57616;BME280;43816;52.054;-9.494;2023-03-14T00:17:35;99363.91;;;17.55;41.90
57616;BME280;43816;52.054;-9.494;2023-03-14T00:17:45;99383.06;;;17.68;41.63
57616;BME280;43816;52.054;-9.494;2023-03-14T00:17:55;99396.47;;;17.70;41.72
57616;BME280;43816;52.054;-9.494;2023-03-14T00:18:06;99380.53;;;17.67;41.44
57616;BME280;43816;52.054;-9.494;2023-03-14T00:18:16;99385.97;;;17.67;41.62
57616;BME280;43816;52.054;-9.494;2023-03-14T00:18:27;99380.97;;;17.64;42.10
57616;BME280;43816;52.054;-9.494;2023-03-14T00:18:41;99375.47;;;17.57;41.69
57616;BME280;43816;52.054;-9.494;2023-03-14T00:18:51;99388.91;;;17.65;41.57
57616;BME280;43816;52.054;-9.494;2023-03-14T00:19:01;99395.25;;;17.72;41.57
57616;BME280;43816;52.054;-9.494;2023-03-14T00:19:12;99376.72;;;17.61;41.65
57616;BME280;43816;52.054;-9.494;2023-03-14T00:19:22;99393.31;;;17.66;41.71
57616;BME280;43816;52.054;-9.494;2023-03-14T00:19:32;99388.50;;;17.68;41.48
57616;BME280;43816;52.054;-9.494;2023-03-14T00:19:43;99387.47;;;17.69;41.58
57616;BME280;43816;52.054;-9.494;2023-03-14T00:19:53;99393.34;;;17.73;41.77
57616;BME280;43816;52.054;-9.494;2023-03-14T00:20:05;99384.13;;;17.67;41.97
57616;BME280;43816;52.054;-9.494;2023-03-14T00:20:17;99386.44;;;17.70;41.67
57616;BME280;43816;52.054;-9.494;2023-03-14T00:20:27;99391.22;;;17.68;41.86
57616;BME280;43816;52.054;-9.494;2023-03-14T00:20:37;99392.72;;;17.71;41.74
57616;BME280;43816;52.054;-9.494;2023-03-14T00:20:47;99373.38;;;17.59;41.83
57616;BME280;43816;52.054;-9.494;2023-03-14T00:20:59;99386.84;;;17.67;41.82
57616;BME280;43816;52.054;-9.494;2023-03-14T00:21:18;99362.50;;;17.59;42.13
57616;BME280;43816;52.054;-9.494;2023-03-14T00:21:28;99369.41;;;17.62;42.21
57616;BME280;43816;52.054;-9.494;2023-03-14T00:21:38;99383.47;;;17.65;41.92
57616;BME280;43816;52.054;-9.494;2023-03-14T00:21:49;99388.09;;;17.71;41.75
57616;BME280;43816;52.054;-9.494;2023-03-14T00:22:08;99389.75;;;17.66;41.98
57616;BME280;43816;52.054;-9.494;2023-03-14T00:22:18;99386.41;;;17.64;41.88
57616;BME280;43816;52.054;-9.494;2023-03-14T00:22:28;99379.47;;;17.61;42.02
57616;BME280;43816;52.054;-9.494;2023-03-14T00:22:39;99401.72;;;17.71;41.88
57616;BME280;43816;52.054;-9.494;2023-03-14T00:22:50;99392.66;;;17.64;41.74
57616;BME280;43816;52.054;-9.494;2023-03-14T00:23:00;99389.94;;;17.64;41.93
57616;BME280;43816;52.054;-9.494;2023-03-14T00:23:11;99387.63;;;17.61;41.43
57616;BME280;43816;52.054;-9.494;2023-03-14T00:23:21;99397.72;;;17.67;41.81
57616;BME280;43816;52.054;-9.494;2023-03-14T00:23:33;99380.91;;;17.57;41.76
57616;BME280;43816;52.054;-9.494;2023-03-14T00:23:44;99395.63;;;17.69;41.81
57616;BME280;43816;52.054;-9.494;2023-03-14T00:23:54;99387.63;;;17.61;41.85
57616;BME280;43816;52.054;-9.494;2023-03-14T00:24:05;99396.84;;;17.67;41.87
57616;BME280;43816;52.054;-9.494;2023-03-14T00:24:15;99397.72;;;17.67;41.90
57616;BME280;43816;52.054;-9.494;2023-03-14T00:24:26;99401.06;;;17.69;41.52
57616;BME280;43816;52.054;-9.494;2023-03-14T00:24:36;99401.66;;;17.65;41.39
57616;BME280;43816;52.054;-9.494;2023-03-14T00:24:46;99393.06;;;17.61;41.68
57616;BME280;43816;52.054;-9.494;2023-03-14T00:24:57;99378.19;;;17.57;41.76
57616;BME280;43816;52.054;-9.494;2023-03-14T00:25:09;99395.56;;;17.63;41.24
57616;BME280;43816;52.054;-9.494;2023-03-14T00:25:19;99403.78;;;17.69;41.75
57616;BME280;43816;52.054;-9.494;2023-03-14T00:25:30;99403.78;;;17.69;41.66
57616;BME280;43816;52.054;-9.494;2023-03-14T00:25:40;99401.06;;;17.69;41.72
57616;BME280;43816;52.054;-9.494;2023-03-14T00:25:50;99399.81;;;17.65;41.76
57616;BME280;43816;52.054;-9.494;2023-03-14T00:26:06;99398.53;;;17.68;41.62
57616;BME280;43816;52.054;-9.494;2023-03-14T00:26:19;99403.78;;;17.69;41.61
57616;BME280;43816;52.054;-9.494;2023-03-14T00:26:29;99409.63;;;17.66;41.71
57616;BME280;43816;52.054;-9.494;2023-03-14T00:26:39;99407.53;;;17.68;41.80
57616;BME280;43816;52.054;-9.494;2023-03-14T00:26:50;99402.53;;;17.65;41.92
57616;BME280;43816;52.054;-9.494;2023-03-14T00:27:00;99418.63;;;17.67;41.62
57616;BME280;43816;52.054;-9.494;2023-03-14T00:27:10;99390.09;;;17.56;41.73
57616;BME280;43816;52.054;-9.494;2023-03-14T00:27:21;99394.75;;;17.62;41.76
57616;BME280;43816;52.054;-9.494;2023-03-14T00:27:32;99393.06;;;17.61;41.84
57616;BME280;43816;52.054;-9.494;2023-03-14T00:27:42;99409.63;;;17.66;41.45
57616;BME280;43816;52.054;-9.494;2023-03-14T00:27:52;99374.56;;;17.50;41.55
57616;BME280;43816;52.054;-9.494;2023-03-14T00:28:03;99388.41;;;17.55;41.60
57616;BME280;43816;52.054;-9.494;2023-03-14T00:28:13;99416.38;;;17.70;41.71
57616;BME280;43816;52.054;-9.494;2023-03-14T00:28:23;99396.03;;;17.66;41.81
57616;BME280;43816;52.054;-9.494;2023-03-14T00:28:34;99403.94;;;17.61;41.91
57616;BME280;43816;52.054;-9.494;2023-03-14T00:28:45;99413.66;;;17.70;41.85
57616;BME280;43816;52.054;-9.494;2023-03-14T00:28:56;99404.38;;;17.65;41.93
57616;BME280;43816;52.054;-9.494;2023-03-14T00:29:06;99408.97;;;17.64;41.82
57616;BME280;43816;52.054;-9.494;2023-03-14T00:29:16;99403.94;;;17.61;41.56
57616;BME280;43816;52.054;-9.494;2023-03-14T00:29:26;99413.66;;;17.70;41.76
57616;BME280;43816;52.054;-9.494;2023-03-14T00:29:37;99397.22;;;17.57;41.71
57616;BME280;43816;52.054;-9.494;2023-03-14T00:29:47;99408.78;;;17.66;41.71
57616;BME280;43816;52.054;-9.494;2023-03-14T00:29:57;99411.31;;;17.67;41.78
57616;BME280;43816;52.054;-9.494;2023-03-14T00:30:08;99407.09;;;17.65;41.57
57616;BME280;43816;52.054;-9.494;2023-03-14T00:30:19;99389.25;;;17.55;41.60
57616;BME280;43816;52.054;-9.494;2023-03-14T00:30:29;99411.94;;;17.69;41.93
57616;BME280;43816;52.054;-9.494;2023-03-14T00:30:40;99410.69;;;17.65;41.65
57616;BME280;43816;52.054;-9.494;2023-03-14T00:30:53;99404.13;;;17.60;41.67
57616;BME280;43816;52.054;-9.494;2023-03-14T00:31:04;99404.75;;;17.62;41.89
57616;BME280;43816;52.054;-9.494;2023-03-14T00:31:15;99412.97;;;17.68;41.65
57616;BME280;43816;52.054;-9.494;2023-03-14T00:31:26;99403.94;;;17.61;41.87
57616;BME280;43816;52.054;-9.494;2023-03-14T00:31:36;99413.59;;;17.64;41.79
57616;BME280;43816;52.054;-9.494;2023-03-14T00:31:46;99408.78;;;17.66;41.84
57616;BME280;43816;52.054;-9.494;2023-03-14T00:31:57;99412.34;;;17.66;41.78
57616;BME280;43816;52.054;-9.494;2023-03-14T00:32:07;99409.44;;;17.68;41.77
57616;BME280;43816;52.054;-9.494;2023-03-14T00:32:17;99387.75;;;17.53;41.62
57616;BME280;43816;52.054;-9.494;2023-03-14T00:32:28;99420.94;;;17.70;41.64
57616;BME280;43816;52.054;-9.494;2023-03-14T00:32:38;99410.69;;;17.65;41.79
57616;BME280;43816;52.054;-9.494;2023-03-14T00:32:48;99410.69;;;17.65;41.99
57616;BME280;43816;52.054;-9.494;2023-03-14T00:32:58;99397.28;;;17.64;41.75
57616;BME280;43816;52.054;-9.494;2023-03-14T00:33:09;99401.47;;;17.66;41.86
57616;BME280;43816;52.054;-9.494;2023-03-14T00:33:19;99414.66;;;17.69;41.56
57616;BME280;43816;52.054;-9.494;2023-03-14T00:33:30;99411.94;;;17.69;41.58
57616;BME280;43816;52.054;-9.494;2023-03-14T00:33:41;99381.69;;;17.51;41.47
57616;BME280;43816;52.054;-9.494;2023-03-14T00:33:52;99407.53;;;17.68;41.81
57616;BME280;43816;52.054;-9.494;2023-03-14T00:34:03;99407.72;;;17.67;41.46
57616;BME280;43816;52.054;-9.494;2023-03-14T00:34:13;99408.16;;;17.64;41.85
57616;BME280;43816;52.054;-9.494;2023-03-14T00:34:23;99384.66;;;17.56;41.99
57616;BME280;43816;52.054;-9.494;2023-03-14T00:34:38;99403.94;;;17.61;41.42
57616;BME280;43816;52.054;-9.494;2023-03-14T00:34:48;99390.28;;;17.54;41.94
57616;BME280;43816;52.054;-9.494;2023-03-14T00:34:59;99386.69;;;17.47;41.80
57616;BME280;43816;52.054;-9.494;2023-03-14T00:35:09;99412.34;;;17.66;41.71
57616;BME280;43816;52.054;-9.494;2023-03-14T00:35:19;99406.47;;;17.63;41.42
57616;BME280;43816;52.054;-9.494;2023-03-14T00:35:29;99402.91;;;17.62;41.66
57616;BME280;43816;52.054;-9.494;2023-03-14T00:35:40;99380.19;;;17.48;41.48
57616;BME280;43816;52.054;-9.494;2023-03-14T00:35:58;99415.69;;;17.68;41.61
57616;BME280;43816;52.054;-9.494;2023-03-14T00:36:11;99414.66;;;17.69;41.93
57616;BME280;43816;52.054;-9.494;2023-03-14T00:36:22;99392.81;;;17.56;41.51
57616;BME280;43816;52.054;-9.494;2023-03-14T00:36:33;99393.44;;;17.58;41.57
57616;BME280;43816;52.054;-9.494;2023-03-14T00:36:44;99414.03;;;17.67;41.81
57616;BME280;43816;52.054;-9.494;2023-03-14T00:36:54;99416.56;;;17.69;41.81
57616;BME280;43816;52.054;-9.494;2023-03-14T00:37:05;99403.94;;;17.61;42.00
57616;BME280;43816;52.054;-9.494;2023-03-14T00:37:16;99399.53;;;17.60;41.47
57616;BME280;43816;52.054;-9.494;2023-03-14T00:37:27;99411.50;;;17.66;41.60
57616;BME280;43816;52.054;-9.494;2023-03-14T00:37:37;99410.69;;;17.65;41.69
57616;BME280;43816;52.054;-9.494;2023-03-14T00:37:47;99403.53;;;17.64;41.64
57616;BME280;43816;52.054;-9.494;2023-03-14T00:37:58;99393.19;;;17.53;41.96
57616;BME280;43816;52.054;-9.494;2023-03-14T00:38:08;99393.84;;;17.55;41.97
57616;BME280;43816;52.054;-9.494;2023-03-14T00:38:18;99406.91;;;17.66;41.62
57616;BME280;43816;52.054;-9.494;2023-03-14T00:38:30;99414.03;;;17.67;41.48
57616;BME280;43816;52.054;-9.494;2023-03-14T00:38:42;99419.47;;;17.67;42.01
57616;BME280;43816;52.054;-9.494;2023-03-14T00:38:53;99414.03;;;17.67;41.68
57616;BME280;43816;52.054;-9.494;2023-03-14T00:39:04;99388.78;;;17.52;41.53
57616;BME280;43816;52.054;-9.494;2023-03-14T00:39:14;99411.91;;;17.63;41.84
57616;BME280;43816;52.054;-9.494;2023-03-14T00:39:25;99400.56;;;17.59;41.36
57616;BME280;43816;52.054;-9.494;2023-03-14T00:39:35;99403.88;;;17.54;41.77
57616;BME280;43816;52.054;-9.494;2023-03-14T00:39:45;99424.91;;;17.67;41.82
57616;BME280;43816;52.054;-9.494;2023-03-14T00:39:55;99408.09;;;17.57;41.61
57616;BME280;43816;52.054;-9.494;2023-03-14T00:40:06;99421.56;;;17.65;41.85
57616;BME280;43816;52.054;-9.494;2023-03-14T00:40:17;99411.91;;;17.63;41.58
57616;BME280;43816;52.054;-9.494;2023-03-14T00:40:27;99403.94;;;17.61;41.65
57616;BME280;43816;52.054;-9.494;2023-03-14T00:40:39;99413.13;;;17.60;41.68
57616;BME280;43816;52.054;-9.494;2023-03-14T00:40:52;99411.84;;;17.56;41.90
57616;BME280;43816;52.054;-9.494;2023-03-14T00:41:05;99411.66;;;17.57;42.00
57616;BME280;43816;52.054;-9.494;2023-03-14T00:41:18;99422.59;;;17.64;41.92
57616;BME280;43816;52.054;-9.494;2023-03-14T00:41:28;99417.72;;;17.60;41.88
57616;BME280;43816;52.054;-9.494;2023-03-14T00:41:39;99420.88;;;17.63;41.58
57616;BME280;43816;52.054;-9.494;2023-03-14T00:41:49;99429.72;;;17.65;41.67
57616;BME280;43816;52.054;-9.494;2023-03-14T00:41:59;99436.63;;;17.68;41.71
57616;BME280;43816;52.054;-9.494;2023-03-14T00:42:10;99416.25;;;17.57;41.69
57616;BME280;43816;52.054;-9.494;2023-03-14T00:42:20;99421.28;;;17.60;41.88
57616;BME280;43816;52.054;-9.494;2023-03-14T00:42:30;99418.38;;;17.62;42.11
57616;BME280;43816;52.054;-9.494;2023-03-14T00:42:40;99423.59;;;17.63;41.49
57616;BME280;43816;52.054;-9.494;2023-03-14T00:42:51;99415.19;;;17.58;41.68
57616;BME280;43816;52.054;-9.494;2023-03-14T00:43:01;99427.38;;;17.62;41.86
57616;BME280;43816;52.054;-9.494;2023-03-14T00:43:11;99389.16;;;17.42;41.61
57616;BME280;43816;52.054;-9.494;2023-03-14T00:43:22;99424.06;;;17.67;41.86
57616;BME280;43816;52.054;-9.494;2023-03-14T00:43:32;99423.59;;;17.63;42.06
57616;BME280;43816;52.054;-9.494;2023-03-14T00:43:43;99403.25;;;17.52;41.73
57616;BME280;43816;52.054;-9.494;2023-03-14T00:43:53;99409.50;;;17.53;41.80
57616;BME280;43816;52.054;-9.494;2023-03-14T00:44:04;99431.56;;;17.65;41.76
57616;BME280;43816;52.054;-9.494;2023-03-14T00:44:14;99425.50;;;17.63;42.32
57616;BME280;43816;52.054;-9.494;2023-03-14T00:44:24;99426.72;;;17.60;41.92
57616;BME280;43816;52.054;-9.494;2023-03-14T00:44:35;99432.81;;;17.62;42.07
57616;BME280;43816;52.054;-9.494;2023-03-14T00:44:45;99405.09;;;17.52;41.97
57616;BME280;43816;52.054;-9.494;2023-03-14T00:44:55;99416.50;;;17.62;41.84
57616;BME280;43816;52.054;-9.494;2023-03-14T00:45:06;99428.03;;;17.64;42.00
57616;BME280;43816;52.054;-9.494;2023-03-14T00:45:16;99417.91;;;17.58;42.18
57616;BME280;43816;52.054;-9.494;2023-03-14T00:45:27;99426.31;;;17.63;41.75
57616;BME280;43816;52.054;-9.494;2023-03-14T00:45:37;99416.91;;;17.59;41.97
57616;BME280;43816;52.054;-9.494;2023-03-14T00:45:51;99432.63;;;17.64;41.79
57616;BME280;43816;52.054;-9.494;2023-03-14T00:46:01;99435.34;;;17.64;42.06
57616;BME280;43816;52.054;-9.494;2023-03-14T00:46:12;99425.31;;;17.64;42.06
57616;BME280;43816;52.054;-9.494;2023-03-14T00:46:23;99427.38;;;17.62;41.85
57616;BME280;43816;52.054;-9.494;2023-03-14T00:46:33;99431.56;;;17.65;41.84
57616;BME280;43816;52.054;-9.494;2023-03-14T00:46:43;99429.06;;;17.63;42.16
57616;BME280;43816;52.054;-9.494;2023-03-14T00:46:54;99425.69;;;17.61;41.86
57616;BME280;43816;52.054;-9.494;2023-03-14T00:47:04;99435.34;;;17.64;41.91
57616;BME280;43816;52.054;-9.494;2023-03-14T00:47:14;99443.31;;;17.65;42.34
57616;BME280;43816;52.054;-9.494;2023-03-14T00:47:25;99422.34;;;17.59;42.05
57616;BME280;43816;52.054;-9.494;2023-03-14T00:47:35;99419.16;;;17.55;42.28
57616;BME280;43816;52.054;-9.494;2023-03-14T00:47:45;99428.59;;;17.60;42.04
57616;BME280;43816;52.054;-9.494;2023-03-14T00:47:55;99446.03;;;17.65;41.66
57616;BME280;43816;52.054;-9.494;2023-03-14T00:48:06;99421.50;;;17.59;42.19
57616;BME280;43816;52.054;-9.494;2023-03-14T00:48:17;99447.06;;;17.64;41.71
57616;BME280;43816;52.054;-9.494;2023-03-14T00:48:28;99431.31;;;17.60;41.91
57616;BME280;43816;52.054;-9.494;2023-03-14T00:48:38;99446.03;;;17.65;41.87
57616;BME280;43816;52.054;-9.494;2023-03-14T00:48:49;99427.78;;;17.59;41.70
57616;BME280;43816;52.054;-9.494;2023-03-14T00:48:59;99445.16;;;17.65;41.92
57616;BME280;43816;52.054;-9.494;2023-03-14T00:49:09;99439.94;;;17.63;41.99
57616;BME280;43816;52.054;-9.494;2023-03-14T00:49:20;99428.59;;;17.60;41.54
57616;BME280;43816;52.054;-9.494;2023-03-14T00:49:30;99406.72;;;17.46;41.65
57616;BME280;43816;52.054;-9.494;2023-03-14T00:49:40;99443.69;;;17.62;41.72
57616;BME280;43816;52.054;-9.494;2023-03-14T00:49:51;99427.31;;;17.55;41.78
57616;BME280;43816;52.054;-9.494;2023-03-14T00:50:01;99427.78;;;17.59;41.11
57616;BME280;43816;52.054;-9.494;2023-03-14T00:50:11;99365.91;;;17.18;41.39
57616;BME280;43816;52.054;-9.494;2023-03-14T00:50:22;99439.94;;;17.63;41.84
57616;BME280;43816;52.054;-9.494;2023-03-14T00:50:32;99435.69;;;17.54;41.69
57616;BME280;43816;52.054;-9.494;2023-03-14T00:50:42;99439.47;;;17.60;41.57
57616;BME280;43816;52.054;-9.494;2023-03-14T00:50:53;99438.66;;;17.59;41.50
57616;BME280;43816;52.054;-9.494;2023-03-14T00:51:04;99439.47;;;17.60;41.41
57616;BME280;43816;52.054;-9.494;2023-03-14T00:51:15;99448.47;;;17.60;41.66
57616;BME280;43816;52.054;-9.494;2023-03-14T00:51:26;99447.91;;;17.65;41.56
57616;BME280;43816;52.054;-9.494;2023-03-14T00:51:36;99443.91;;;17.61;41.14
57616;BME280;43816;52.054;-9.494;2023-03-14T00:51:46;99445.56;;;17.62;41.76
57616;BME280;43816;52.054;-9.494;2023-03-14T00:51:57;99424.75;;;17.47;41.48
57616;BME280;43816;52.054;-9.494;2023-03-14T00:52:07;99449.53;;;17.59;41.50
57616;BME280;43816;52.054;-9.494;2023-03-14T00:52:17;99447.44;;;17.61;41.74
57616;BME280;43816;52.054;-9.494;2023-03-14T00:52:27;99433.22;;;17.59;41.79
57616;BME280;43816;52.054;-9.494;2023-03-14T00:52:38;99441.38;;;17.59;42.03
57616;BME280;43816;52.054;-9.494;2023-03-14T00:52:48;99452.88;;;17.61;41.87
57616;BME280;43816;52.054;-9.494;2023-03-14T00:52:58;99443.91;;;17.61;41.45
57616;BME280;43816;52.054;-9.494;2023-03-14T00:53:09;99450.16;;;17.61;41.59
57616;BME280;43816;52.054;-9.494;2023-03-14T00:53:19;99432.97;;;17.54;41.58
57616;BME280;43816;52.054;-9.494;2023-03-14T00:53:30;99451.41;;;17.59;41.80
57616;BME280;43816;52.054;-9.494;2023-03-14T00:53:41;99445.38;;;17.63;41.59
57616;BME280;43816;52.054;-9.494;2023-03-14T00:53:51;99451.88;;;17.62;41.73
57616;BME280;43816;52.054;-9.494;2023-03-14T00:54:01;99447.84;;;17.58;41.71
57616;BME280;43816;52.054;-9.494;2023-03-14T00:54:12;99451.88;;;17.62;41.57
57616;BME280;43816;52.054;-9.494;2023-03-14T00:54:22;99448.22;;;17.55;41.39
57616;BME280;43816;52.054;-9.494;2023-03-14T00:54:32;99459.84;;;17.64;41.76
57616;BME280;43816;52.054;-9.494;2023-03-14T00:54:43;99441.56;;;17.57;41.35
57616;BME280;43816;52.054;-9.494;2023-03-14T00:54:53;99460.03;;;17.62;41.43
57616;BME280;43816;52.054;-9.494;2023-03-14T00:55:04;99457.09;;;17.64;41.74
57616;BME280;43816;52.054;-9.494;2023-03-14T00:55:14;99446.16;;;17.57;41.69
57616;BME280;43816;52.054;-9.494;2023-03-14T00:55:25;99456.00;;;17.58;41.40
57616;BME280;43816;52.054;-9.494;2023-03-14T00:55:40;99457.50;;;17.61;41.39
57616;BME280;43816;52.054;-9.494;2023-03-14T00:55:50;99459.16;;;17.62;41.51
57616;BME280;43816;52.054;-9.494;2023-03-14T00:56:05;99460.41;;;17.59;41.50
57616;BME280;43816;52.054;-9.494;2023-03-14T00:56:16;99451.59;;;17.57;41.35
57616;BME280;43816;52.054;-9.494;2023-03-14T00:56:27;99459.84;;;17.64;41.49
57616;BME280;43816;52.054;-9.494;2023-03-14T00:56:37;99460.03;;;17.62;41.46
57616;BME280;43816;52.054;-9.494;2023-03-14T00:56:47;99452.25;;;17.59;41.52
57616;BME280;43816;52.054;-9.494;2023-03-14T00:56:58;99469.84;;;17.63;41.13
57616;BME280;43816;52.054;-9.494;2023-03-14T00:57:08;99449.91;;;17.56;41.45
57616;BME280;43816;52.054;-9.494;2023-03-14T00:57:18;99442.16;;;17.53;41.37
57616;BME280;43816;52.054;-9.494;2023-03-14T00:57:29;99453.66;;;17.55;41.42
57616;BME280;43816;52.054;-9.494;2023-03-14T00:57:39;99459.34;;;17.60;41.34